Aeroporto :
LOGIN :

Iscrizione | Disclaimer

   EN    FR    IT 

 










Sommario :    VFR   VFR Marginale   IFR   IFR Intensivo   IFR Molto Intensivo
Visibilità : 
Base nubi : 
>= 8 km
>= 3000ft
5 / 8 km
1000 / 3000 ft
1500m / 5 km
500 / 1000 ft
800 / 1500m
200 / 500 ft
< 800m
< 200 ft
Simboli :   Temporali  Nebbia  Neve Forte  Precipitazioni Forti  Vento > 20 kt
SIGMETs :   Varie  Temporali  Ghiacco  Turbolenza  Onda orograficha  Ceneri Vulcaniche






- Altitudine del aeroporto : 184 ft
- Codice IATA : BRU


EBBR - Bruxelles

ULTIMO METAR :
  • 271920Z 06002KT 1600 BR SCT003 06/05 Q1018 TEMPO 1200 BR

METARs OBSOLETI :
  • 271850Z VRB01KT 1600 BR SCT003 06/05 Q1018 TEMPO 1200 BR
  • 271820Z 07002KT 1800 BR SCT003 06/05 Q1018 TEMPO 1200 BR BKN003
  • 271750Z 07002KT 2000 BR SCT003 06/05 Q1018 TEMPO 1200 BR BKN003
  • 271720Z 00000KT 2000 BR SCT003 06/05 Q1018 TEMPO 1200 BR BKN003
  • 271650Z 06003KT 040V100 2000 BR SCT003 06/05 Q1018 TEMPO 1200 BR BKN003

TAF TAF EBBR
Valido dal 27 a 18 ore il 29 a 00 ore UTC


271710Z 2718/2824 10003KT 2000 BR SCT004
PROB30
TEMPO 2718/2722 1200 BCFG BKN002
BECMG 2722/2724 4000 BR NSC
PROB30 2800/2808 6000 NSW
BECMG 2808/2810 8000 NSW
PROB40
TEMPO 2821/2824 1200 BCFG



MetMap, La meteo Aeronautica in un colpo d'occhio ! - Copyright ORBIFLY Dicembre 2007 - Disclaimer

ORBIFLY MET'MAP TEAM :

Programmazione e sviluppo : Alexandra Zaïnal
Concezione : Baudouin d'Aumeries
Aiuto per la programmazione : Marc-Olivier Méhu
Supporto tecnico e logistico : Manuel Goepfert
Aiuto per la traduzione : Arnaldo La Scala

Contatto : metmap@orbifly.com




FONTI E CREDITI :

   NOAA